Time;durP1;ratioP1;P1;durP2;ratioP2;P2;SDS_P1;SDS_P2;PMS_P1;PMS_P2;Temp;Humidity;BMP_temperature;BMP_pressure;BME280_temperature;BME280_humidity;BME280_pressure;Samples;Min_cycle;Max_cycle;Signal;HPM_P1;HPM_P2
2022/03/19 00:02:04;;;;;;;;;;;10.70;94.90;;;;;;4359876;32;44122;-85
2022/03/19 00:04:31;;;;;;;;;;;10.70;94.80;;;;;;4360366;32;43359;-84
2022/03/19 00:06:58;;;;;;;;;;;10.70;94.90;;;;;;4346456;32;43057;-85
2022/03/19 00:09:25;;;;;;;;;;;10.70;94.80;;;;;;4360316;32;43099;-85
2022/03/19 00:11:54;;;;;;;;;;;10.70;94.90;;;;;;4346604;32;43210;-85
2022/03/19 00:14:21;;;;;;;;;;;10.70;94.80;;;;;;4346516;32;44586;-84
2022/03/19 00:16:48;;;;;;;;;;;10.70;94.80;;;;;;4360584;32;20970;-85
2022/03/19 00:19:15;;;;;;;;;;;10.70;94.80;;;;;;4360158;32;43537;-85
2022/03/19 00:21:42;;;;;;;;;;;10.60;94.80;;;;;;4346789;32;42765;-85
2022/03/19 00:24:09;;;;;;;;;;;10.70;94.80;;;;;;4359828;32;42625;-84
2022/03/19 00:26:36;;;;;;;;;;;10.60;94.70;;;;;;4346929;32;43294;-85
2022/03/19 00:29:03;;;;;;;;;;;10.60;94.70;;;;;;4346680;32;44233;-85
2022/03/19 00:31:30;;;;;;;;;;;10.60;94.50;;;;;;4346697;33;44853;-85
2022/03/19 00:33:57;;;;;;;;;;;10.60;94.80;;;;;;4359831;33;43949;-85
2022/03/19 00:36:25;;;;;;;;;;;10.50;94.60;;;;;;4360122;33;42769;-85
2022/03/19 00:38:52;;;;;;;;;;;10.50;94.70;;;;;;4346308;33;42587;-85
2022/03/19 00:41:19;;;;;;;;;;;10.50;94.60;;;;;;4346588;33;43837;-84
2022/03/19 00:43:46;;;;;;;;;;;10.50;94.50;;;;;;4346272;33;43806;-84
2022/03/19 00:46:15;;;;;;;;;;;10.50;94.50;;;;;;4359935;33;43965;-84
2022/03/19 00:48:42;;;;;;;;;;;10.50;94.50;;;;;;4346655;33;45770;-85
2022/03/19 00:51:09;;;;;;;;;;;10.50;94.50;;;;;;4359596;33;43180;-85
2022/03/19 00:53:36;;;;;;;;;;;10.50;94.70;;;;;;4359916;33;43913;-85
2022/03/19 00:56:03;;;;;;;;;;;10.50;94.50;;;;;;4346221;33;44197;-84
2022/03/19 00:58:30;;;;;;;;;;;10.50;94.50;;;;;;4346153;33;43953;-85
2022/03/19 01:00:57;;;;;;;;;;;10.50;94.40;;;;;;4359603;33;44226;-85
2022/03/19 01:03:24;;;;;;;;;;;10.50;94.40;;;;;;4359313;33;42713;-84
2022/03/19 01:05:52;;;;;;;;;;;10.50;94.40;;;;;;4346187;33;44103;-84
2022/03/19 01:08:19;;;;;;;;;;;10.50;94.50;;;;;;4346231;33;43246;-84
2022/03/19 01:10:46;;;;;;;;;;;10.50;94.30;;;;;;4359710;33;43871;-84
2022/03/19 01:13:13;;;;;;;;;;;10.50;94.60;;;;;;4359579;33;42925;-84
2022/03/19 01:15:40;;;;;;;;;;;10.50;94.50;;;;;;4346552;33;43505;-84
2022/03/19 01:18:07;;;;;;;;;;;10.50;94.20;;;;;;4359358;33;44067;-84
2022/03/19 01:20:34;;;;;;;;;;;10.50;94.30;;;;;;4346146;33;43500;-84
2022/03/19 01:23:01;;;;;;;;;;;10.50;94.20;;;;;;4346379;33;43507;-84
2022/03/19 01:25:29;;;;;;;;;;;10.40;94.20;;;;;;4359749;32;44569;-84
2022/03/19 01:27:56;;;;;;;;;;;10.40;94.30;;;;;;4346708;32;43820;-84
2022/03/19 01:30:24;;;;;;;;;;;10.30;94.00;;;;;;4348983;32;45275;-84
2022/03/19 01:32:51;;;;;;;;;;;10.30;93.90;;;;;;4361865;32;44116;-84
2022/03/19 01:35:18;;;;;;;;;;;10.30;94.00;;;;;;4348893;32;43264;-84
2022/03/19 01:37:46;;;;;;;;;;;10.30;94.30;;;;;;4348963;32;43464;-83
2022/03/19 01:40:14;;;;;;;;;;;10.20;93.90;;;;;;4348593;32;42327;-84
2022/03/19 01:42:42;;;;;;;;;;;10.20;94.00;;;;;;4362323;32;45388;-84
2022/03/19 01:45:13;;;;;;;;;;;10.20;94.00;;;;;;4362404;32;45798;-84
2022/03/19 01:47:41;;;;;;;;;;;10.20;93.70;;;;;;4362480;32;46040;-84
2022/03/19 01:50:09;;;;;;;;;;;10.20;94.00;;;;;;4348900;32;46204;-84
2022/03/19 01:52:36;;;;;;;;;;;10.10;94.40;;;;;;4361695;32;43015;-84
2022/03/19 01:55:04;;;;;;;;;;;10.20;94.20;;;;;;4348883;32;44187;-84
2022/03/19 01:57:34;;;;;;;;;;;10.20;94.10;;;;;;4348730;32;42343;-84
2022/03/19 02:00:02;;;;;;;;;;;10.20;94.10;;;;;;4361586;32;44103;-83
2022/03/19 02:02:29;;;;;;;;;;;10.20;94.10;;;;;;4348349;32;44199;-84
2022/03/19 02:04:59;;;;;;;;;;;10.20;94.20;;;;;;4361527;32;43872;-84
2022/03/19 02:07:26;;;;;;;;;;;10.10;93.80;;;;;;4348456;32;43378;-84
2022/03/19 02:09:56;;;;;;;;;;;10.10;93.80;;;;;;4361452;32;42402;-84
2022/03/19 02:12:23;;;;;;;;;;;10.10;93.50;;;;;;4361737;32;43160;-84
2022/03/19 02:14:50;;;;;;;;;;;10.10;94.10;;;;;;4361580;32;46233;-84
2022/03/19 02:17:18;;;;;;;;;;;10.00;93.80;;;;;;4361586;32;43748;-84
2022/03/19 02:19:48;;;;;;;;;;;10.00;93.80;;;;;;4361291;32;44346;-83
2022/03/19 02:22:15;;;;;;;;;;;10.00;93.70;;;;;;4361864;32;45102;-83
2022/03/19 02:27:28;;;;;;;;;;;9.90;94.20;;;;;;4361887;32;44102;-84
2022/03/19 02:29:56;;;;;;;;;;;9.90;93.70;;;;;;4347843;32;45918;-84
2022/03/19 02:32:24;;;;;;;;;;;9.90;93.80;;;;;;4347716;32;43995;-84
2022/03/19 02:34:52;;;;;;;;;;;9.90;93.80;;;;;;4361207;32;43908;-83
2022/03/19 02:37:19;;;;;;;;;;;9.80;93.80;;;;;;4347724;32;43245;-84
2022/03/19 02:39:46;;;;;;;;;;;9.80;94.20;;;;;;4361419;32;43217;-84
2022/03/19 02:42:17;;;;;;;;;;;9.90;93.90;;;;;;4361108;32;42980;-84
2022/03/19 02:44:45;;;;;;;;;;;9.80;93.80;;;;;;4348143;32;43478;-83
2022/03/19 02:47:12;;;;;;;;;;;9.80;93.70;;;;;;4361225;32;43282;-84
2022/03/19 02:49:39;;;;;;;;;;;9.80;93.90;;;;;;4347688;32;43474;-84
2022/03/19 02:52:06;;;;;;;;;;;9.80;94.10;;;;;;4361327;32;43902;-84
2022/03/19 02:54:33;;;;;;;;;;;9.70;93.80;;;;;;4361067;32;43571;-84
2022/03/19 02:57:01;;;;;;;;;;;9.80;93.50;;;;;;4361365;32;45636;-84
2022/03/19 02:59:29;;;;;;;;;;;9.70;94.00;;;;;;4347766;32;44188;-84
2022/03/19 03:01:57;;;;;;;;;;;9.80;93.90;;;;;;4347539;32;44159;-84
2022/03/19 03:04:25;;;;;;;;;;;9.80;93.80;;;;;;4347547;32;44097;-84
2022/03/19 03:06:53;;;;;;;;;;;9.80;93.90;;;;;;4347823;32;44067;-84
2022/03/19 03:09:24;;;;;;;;;;;9.80;93.80;;;;;;4360767;32;43596;-83
2022/03/19 03:11:51;;;;;;;;;;;9.80;93.80;;;;;;4347616;32;43411;-83
2022/03/19 03:14:21;;;;;;;;;;;9.80;94.00;;;;;;4347468;32;43884;-84
2022/03/19 03:16:50;;;;;;;;;;;9.80;93.90;;;;;;4347656;32;45856;-83
2022/03/19 03:19:18;;;;;;;;;;;9.80;93.90;;;;;;4360404;32;43245;-84
2022/03/19 03:21:45;;;;;;;;;;;9.80;93.80;;;;;;4347409;32;44252;-84
2022/03/19 03:24:13;;;;;;;;;;;9.80;93.80;;;;;;4361056;32;43476;-84
2022/03/19 03:26:41;;;;;;;;;;;9.80;93.90;;;;;;4347123;32;42525;-84
2022/03/19 03:29:08;;;;;;;;;;;9.80;93.80;;;;;;4347105;32;42847;-85
2022/03/19 03:31:36;;;;;;;;;;;9.80;94.20;;;;;;4347433;32;44139;-84
2022/03/19 03:34:03;;;;;;;;;;;9.80;93.90;;;;;;4346740;32;44942;-84
2022/03/19 03:36:30;;;;;;;;;;;9.80;93.50;;;;;;4360367;32;44538;-84
2022/03/19 03:38:57;;;;;;;;;;;9.70;93.80;;;;;;4346900;32;44185;-84
2022/03/19 03:41:24;;;;;;;;;;;9.70;93.80;;;;;;4360681;32;44204;-84
2022/03/19 03:43:51;;;;;;;;;;;9.70;93.80;;;;;;4360550;32;42834;-84
2022/03/19 03:46:18;;;;;;;;;;;9.70;93.40;;;;;;4360324;32;43221;-84
2022/03/19 03:48:46;;;;;;;;;;;9.70;93.70;;;;;;4360082;32;42370;-84
2022/03/19 03:51:13;;;;;;;;;;;9.70;93.70;;;;;;4346738;32;44145;-84
2022/03/19 03:53:43;;;;;;;;;;;9.70;93.70;;;;;;4360331;32;44122;-83
2022/03/19 03:56:10;;;;;;;;;;;9.70;93.60;;;;;;4360477;32;43050;-83
2022/03/19 03:58:39;;;;;;;;;;;9.60;94.00;;;;;;4359924;32;42746;-84
2022/03/19 04:01:06;;;;;;;;;;;9.60;93.70;;;;;;4347082;32;42918;-84
2022/03/19 04:03:34;;;;;;;;;;;9.60;93.70;;;;;;4360425;32;43219;-84
2022/03/19 04:06:02;;;;;;;;;;;9.60;93.60;;;;;;4360090;32;43882;-84
2022/03/19 04:08:29;;;;;;;;;;;9.60;93.70;;;;;;4346771;32;43214;-84
2022/03/19 04:10:56;;;;;;;;;;;9.60;93.60;;;;;;4346674;32;44060;-84
2022/03/19 04:13:23;;;;;;;;;;;9.60;93.30;;;;;;4346743;32;43421;-84
2022/03/19 04:15:50;;;;;;;;;;;9.50;93.50;;;;;;4360251;32;42806;-84
2022/03/19 04:18:18;;;;;;;;;;;9.50;93.60;;;;;;4359843;32;42867;-83
2022/03/19 04:20:45;;;;;;;;;;;9.50;93.60;;;;;;4346611;32;43805;-84
2022/03/19 04:23:12;;;;;;;;;;;9.50;93.60;;;;;;4359989;32;43059;-84
2022/03/19 04:25:40;;;;;;;;;;;9.50;93.60;;;;;;4359779;32;42472;-83
2022/03/19 04:28:07;;;;;;;;;;;9.40;93.40;;;;;;4359665;32;44023;-83
2022/03/19 04:30:34;;;;;;;;;;;9.50;93.70;;;;;;4346341;32;43977;-84
2022/03/19 04:33:01;;;;;;;;;;;9.50;93.70;;;;;;4346525;32;42984;-84
2022/03/19 04:38:16;;;;;;;;;;;9.40;93.60;;;;;;4359974;33;43098;-84
2022/03/19 04:40:44;;;;;;;;;;;9.40;94.00;;;;;;4359909;33;44929;-84
2022/03/19 04:43:11;;;;;;;;;;;9.40;93.80;;;;;;4359584;33;45353;-84
2022/03/19 04:45:39;;;;;;;;;;;9.40;93.70;;;;;;4359861;33;43509;-83
2022/03/19 04:48:06;;;;;;;;;;;9.40;93.70;;;;;;4346389;33;44933;-83
2022/03/19 04:50:38;;;;;;;;;;;9.40;93.80;;;;;;4346098;33;44297;-83
2022/03/19 04:53:06;;;;;;;;;;;9.40;93.70;;;;;;4346201;33;43999;-83
2022/03/19 04:55:35;;;;;;;;;;;9.30;93.70;;;;;;4346320;33;42848;-84
2022/03/19 04:58:03;;;;;;;;;;;9.40;93.80;;;;;;4360068;33;44184;-84
2022/03/19 05:00:31;;;;;;;;;;;9.40;93.60;;;;;;4346587;33;43164;-84
2022/03/19 05:03:03;;;;;;;;;;;9.30;93.70;;;;;;4360665;32;44465;-83
2022/03/19 05:05:30;;;;;;;;;;;9.30;93.60;;;;;;4362389;32;43195;-83
2022/03/19 05:07:57;;;;;;;;;;;9.30;93.40;;;;;;4362786;32;42684;-84
2022/03/19 05:13:10;;;;;;;;;;;9.30;93.70;;;;;;4362603;32;43301;-83
2022/03/19 05:15:38;;;;;;;;;;;9.30;93.70;;;;;;4362476;32;44133;-83
2022/03/19 05:18:05;;;;;;;;;;;9.30;94.00;;;;;;4362302;32;43730;-83
2022/03/19 05:20:35;;;;;;;;;;;9.30;93.90;;;;;;4362109;32;43485;-84
2022/03/19 05:23:04;;;;;;;;;;;9.20;93.70;;;;;;4362441;32;42565;-83
2022/03/19 05:25:31;;;;;;;;;;;9.20;93.80;;;;;;4362279;32;44302;-83
2022/03/19 05:27:58;;;;;;;;;;;9.20;93.70;;;;;;4362513;32;45447;-83
2022/03/19 05:30:25;;;;;;;;;;;9.20;93.80;;;;;;4362198;32;43859;-84
2022/03/19 05:32:52;;;;;;;;;;;9.20;93.80;;;;;;4349001;32;44395;-83
2022/03/19 05:35:20;;;;;;;;;;;9.20;93.60;;;;;;4348668;32;43363;-84
2022/03/19 05:37:48;;;;;;;;;;;9.20;93.70;;;;;;4362642;32;43294;-84
2022/03/19 05:40:15;;;;;;;;;;;9.20;93.90;;;;;;4362186;32;44154;-83
2022/03/19 05:42:42;;;;;;;;;;;9.10;93.80;;;;;;4348481;32;43912;-84
2022/03/19 05:45:10;;;;;;;;;;;9.10;93.80;;;;;;4362405;32;43931;-84
2022/03/19 05:47:38;;;;;;;;;;;9.10;93.90;;;;;;4361788;32;43431;-83
2022/03/19 05:50:06;;;;;;;;;;;9.10;93.80;;;;;;4348785;32;45900;-83
2022/03/19 05:52:33;;;;;;;;;;;9.10;93.80;;;;;;4348573;32;43157;-84
2022/03/19 05:55:00;;;;;;;;;;;9.10;93.90;;;;;;4348684;32;44105;-84
2022/03/19 05:57:27;;;;;;;;;;;9.10;94.00;;;;;;4362004;32;45591;-84
2022/03/19 05:59:56;;;;;;;;;;;9.10;93.90;;;;;;4362070;32;45750;-84
2022/03/19 06:02:24;;;;;;;;;;;9.00;93.80;;;;;;4348259;32;43488;-84
2022/03/19 06:04:52;;;;;;;;;;;9.00;93.90;;;;;;4348369;32;45235;-83
2022/03/19 06:07:20;;;;;;;;;;;9.00;93.90;;;;;;4361582;32;42490;-83
2022/03/19 06:09:47;;;;;;;;;;;9.00;94.00;;;;;;4348435;32;43051;-84
2022/03/19 06:12:15;;;;;;;;;;;9.00;94.00;;;;;;4361873;32;44203;-84
2022/03/19 06:14:42;;;;;;;;;;;9.00;93.90;;;;;;4347776;32;43477;-84
2022/03/19 06:17:09;;;;;;;;;;;9.00;93.90;;;;;;4348099;32;42718;-84
2022/03/19 06:19:36;;;;;;;;;;;9.00;94.20;;;;;;4348727;32;43864;-84
2022/03/19 06:22:04;;;;;;;;;;;8.90;94.10;;;;;;4347938;32;44417;-83
2022/03/19 06:24:31;;;;;;;;;;;8.90;94.20;;;;;;4361780;32;42825;-84
2022/03/19 06:26:58;;;;;;;;;;;8.90;94.20;;;;;;4361654;32;44246;-83
2022/03/19 06:29:25;;;;;;;;;;;8.90;94.30;;;;;;4361599;32;44251;-84
2022/03/19 06:31:52;;;;;;;;;;;8.90;94.30;;;;;;4361202;32;42541;-84
2022/03/19 06:34:19;;;;;;;;;;;8.90;94.40;;;;;;4361100;32;43221;-84
2022/03/19 06:39:32;;;;;;;;;;;8.90;94.40;;;;;;4361496;32;43266;-83
2022/03/19 06:41:59;;;;;;;;;;;8.90;94.50;;;;;;4348071;32;44968;-84
2022/03/19 06:44:26;;;;;;;;;;;8.90;94.50;;;;;;4347902;32;43041;-84
2022/03/19 06:46:53;;;;;;;;;;;8.90;94.70;;;;;;4361176;32;43229;-84
2022/03/19 06:49:20;;;;;;;;;;;8.90;94.70;;;;;;4347756;32;43859;-84
2022/03/19 06:51:47;;;;;;;;;;;8.90;94.80;;;;;;4347359;32;44977;-83
2022/03/19 06:54:14;;;;;;;;;;;8.90;94.80;;;;;;4347940;32;44977;-84
2022/03/19 06:56:42;;;;;;;;;;;8.90;94.70;;;;;;4360811;32;43506;-84
2022/03/19 06:59:09;;;;;;;;;;;8.90;94.80;;;;;;4361359;32;43517;-84
2022/03/19 07:01:36;;;;;;;;;;;8.90;94.80;;;;;;4347185;32;44123;-83
2022/03/19 07:04:04;;;;;;;;;;;8.90;94.90;;;;;;4360778;32;44023;-84
2022/03/19 07:06:31;;;;;;;;;;;8.90;94.90;;;;;;4360692;32;42046;-84
2022/03/19 07:09:22;;;;;;;;;;;8.90;95.00;;;;;;4349382;32;44115;-84
2022/03/19 07:11:50;;;;;;;;;;;8.90;95.00;;;;;;4360854;32;43777;-85
2022/03/19 07:14:17;;;;;;;;;;;8.90;95.00;;;;;;4360574;32;43980;-85
2022/03/19 07:16:45;;;;;;;;;;;8.80;95.00;;;;;;4347816;32;43470;-84
2022/03/19 07:19:12;;;;;;;;;;;8.90;95.10;;;;;;4361440;32;20039;-84
2022/03/19 07:21:39;;;;;;;;;;;8.80;95.10;;;;;;4361232;32;42798;-83
2022/03/19 07:24:06;;;;;;;;;;;8.80;95.20;;;;;;4347192;32;43106;-84
2022/03/19 07:26:33;;;;;;;;;;;8.80;95.20;;;;;;4359998;32;44280;-84
2022/03/19 07:29:01;;;;;;;;;;;8.80;95.20;;;;;;4347306;32;43480;-84
2022/03/19 07:31:28;;;;;;;;;;;8.80;95.50;;;;;;4347301;32;44609;-84
2022/03/19 07:33:55;;;;;;;;;;;8.80;95.30;;;;;;4346840;32;44891;-84
2022/03/19 07:36:22;;;;;;;;;;;8.80;95.40;;;;;;4360674;32;43502;-84
2022/03/19 07:38:49;;;;;;;;;;;8.80;95.30;;;;;;4360409;32;43874;-84
2022/03/19 07:44:03;;;;;;;;;;;8.80;95.50;;;;;;4360237;32;43917;-84
2022/03/19 07:46:31;;;;;;;;;;;8.80;95.60;;;;;;4346839;32;44191;-84
2022/03/19 07:48:59;;;;;;;;;;;8.80;95.40;;;;;;4360577;32;43646;-84
2022/03/19 07:51:28;;;;;;;;;;;8.80;95.50;;;;;;4346767;32;43963;-84
2022/03/19 07:53:55;;;;;;;;;;;8.80;95.60;;;;;;4360009;32;42550;-84
2022/03/19 07:56:22;;;;;;;;;;;8.70;95.60;;;;;;4346881;32;44762;-83
2022/03/19 07:58:50;;;;;;;;;;;8.80;95.70;;;;;;4359989;32;42802;-84
2022/03/19 08:01:18;;;;;;;;;;;8.80;95.70;;;;;;4360337;32;42747;-84
2022/03/19 08:03:46;;;;;;;;;;;8.80;95.80;;;;;;4359870;32;43907;-84
2022/03/19 08:06:13;;;;;;;;;;;8.80;95.70;;;;;;4346633;32;43063;-84
2022/03/19 08:08:41;;;;;;;;;;;8.80;95.70;;;;;;4346846;32;43307;-84
2022/03/19 08:11:08;;;;;;;;;;;8.80;95.80;;;;;;4346834;32;43949;-83
2022/03/19 08:13:35;;;;;;;;;;;8.80;95.90;;;;;;4360182;32;44102;-84
2022/03/19 08:16:02;;;;;;;;;;;8.80;95.90;;;;;;4346765;32;43750;-83
2022/03/19 08:18:29;;;;;;;;;;;8.80;96.00;;;;;;4359720;32;46196;-84
2022/03/19 08:20:57;;;;;;;;;;;8.80;96.00;;;;;;4359948;32;43947;-84
2022/03/19 08:23:25;;;;;;;;;;;8.90;96.10;;;;;;4359884;32;45800;-84
2022/03/19 08:25:52;;;;;;;;;;;8.90;96.00;;;;;;4360286;32;44227;-84
2022/03/19 08:28:19;;;;;;;;;;;8.80;96.00;;;;;;4346967;32;43910;-83
2022/03/19 08:30:46;;;;;;;;;;;8.80;96.00;;;;;;4346639;32;43128;-84
2022/03/19 08:33:13;;;;;;;;;;;8.90;96.10;;;;;;4359712;32;42851;-84
2022/03/19 08:35:42;;;;;;;;;;;8.90;96.00;;;;;;4346433;32;44059;-84
2022/03/19 08:40:57;;;;;;;;;;;8.90;96.00;;;;;;4329200;33;45371;-83
2022/03/19 08:43:24;;;;;;;;;;;8.90;95.90;;;;;;4346187;33;44255;-82
2022/03/19 08:45:51;;;;;;;;;;;8.90;95.90;;;;;;4359802;33;43825;-86
2022/03/19 08:48:18;;;;;;;;;;;8.90;95.90;;;;;;4346906;33;43914;-85
2022/03/19 08:50:46;;;;;;;;;;;8.90;96.10;;;;;;4359555;33;44179;-88
2022/03/19 08:53:14;;;;;;;;;;;8.90;96.10;;;;;;4347253;33;43054;-84
2022/03/19 08:55:42;;;;;;;;;;;8.90;96.10;;;;;;4359425;33;43888;-84
2022/03/19 08:58:10;;;;;;;;;;;8.90;96.10;;;;;;4346608;33;43501;-84
2022/03/19 09:00:40;;;;;;;;;;;9.00;96.20;;;;;;4359610;33;42573;-84
2022/03/19 09:03:07;;;;;;;;;;;8.90;96.20;;;;;;4346342;33;43615;-84
2022/03/19 09:05:34;;;;;;;;;;;9.00;96.10;;;;;;4359427;33;43332;-84
2022/03/19 09:08:01;;;;;;;;;;;9.00;96.20;;;;;;4346530;33;43882;-84
2022/03/19 09:10:28;;;;;;;;;;;9.00;96.10;;;;;;4345977;33;42563;-84
2022/03/19 09:12:55;;;;;;;;;;;9.00;96.30;;;;;;4359480;33;44179;-85
2022/03/19 09:15:23;;;;;;;;;;;9.00;96.40;;;;;;4359302;33;43442;-84
2022/03/19 09:17:50;;;;;;;;;;;9.00;96.50;;;;;;4359685;33;43833;-84
2022/03/19 09:20:17;;;;;;;;;;;9.00;96.40;;;;;;4346721;33;30865;-83
2022/03/19 09:22:44;;;;;;;;;;;9.00;96.40;;;;;;4359731;33;43879;-84
2022/03/19 09:25:11;;;;;;;;;;;9.00;96.40;;;;;;4346362;33;44716;-84
2022/03/19 09:27:39;;;;;;;;;;;9.10;96.40;;;;;;4345999;33;43474;-85
2022/03/19 09:30:10;;;;;;;;;;;9.10;96.40;;;;;;4346184;33;44055;-85
2022/03/19 09:32:37;;;;;;;;;;;9.10;96.30;;;;;;4359249;33;43268;-86
2022/03/19 09:35:08;;;;;;;;;;;9.10;96.30;;;;;;4359503;33;45953;-83
2022/03/19 09:37:35;;;;;;;;;;;9.10;96.20;;;;;;4359246;33;43474;-84
2022/03/19 09:40:03;;;;;;;;;;;9.20;96.20;;;;;;4359252;33;43349;-84
2022/03/19 09:42:32;;;;;;;;;;;9.20;96.30;;;;;;4359428;33;44255;-84
2022/03/19 09:44:59;;;;;;;;;;;9.20;96.10;;;;;;4346357;33;43130;-85
2022/03/19 09:47:26;;;;;;;;;;;9.20;95.90;;;;;;4359591;33;42751;-83
2022/03/19 09:49:55;;;;;;;;;;;9.20;96.00;;;;;;4348176;32;43986;-86
2022/03/19 09:52:24;;;;;;;;;;;9.20;95.90;;;;;;4348906;32;43203;-85
2022/03/19 09:54:52;;;;;;;;;;;9.30;95.80;;;;;;4348317;32;42630;-85
2022/03/19 09:57:19;;;;;;;;;;;9.30;95.70;;;;;;4361939;32;42855;-85
2022/03/19 09:59:47;;;;;;;;;;;9.30;95.60;;;;;;4348315;32;43207;-85
2022/03/19 10:02:15;;;;;;;;;;;9.30;95.60;;;;;;4361568;32;43424;-84
2022/03/19 10:04:42;;;;;;;;;;;9.30;95.30;;;;;;4361648;32;43324;-86
2022/03/19 10:09:56;;;;;;;;;;;9.40;95.20;;;;;;4361754;32;43208;-84
2022/03/19 10:12:30;;;;;;;;;;;9.40;95.10;;;;;;4361626;32;44780;-85
2022/03/19 10:14:57;;;;;;;;;;;9.40;95.10;;;;;;4362028;32;44103;-85
2022/03/19 10:17:35;;;;;;;;;;;9.40;95.00;;;;;;4361322;32;44761;-85
2022/03/19 10:20:06;;;;;;;;;;;9.50;95.10;;;;;;4361573;32;43786;-85
2022/03/19 10:22:34;;;;;;;;;;;9.40;94.90;;;;;;4361334;32;43860;-85
2022/03/19 10:25:03;;;;;;;;;;;9.50;94.60;;;;;;4348244;32;42968;-85
2022/03/19 10:27:34;;;;;;;;;;;9.50;94.30;;;;;;4348398;32;43478;-85
2022/03/19 10:30:03;;;;;;;;;;;9.50;94.30;;;;;;4361872;32;44135;-86
2022/03/19 10:32:30;;;;;;;;;;;9.50;94.30;;;;;;4361171;32;44233;-85
2022/03/19 10:34:57;;;;;;;;;;;9.50;94.00;;;;;;4347778;32;43679;-86
2022/03/19 10:37:38;;;;;;;;;;;9.50;93.60;;;;;;4348055;32;44290;-86
2022/03/19 10:40:07;;;;;;;;;;;9.50;93.60;;;;;;4347846;32;42657;-85
2022/03/19 10:42:43;;;;;;;;;;;9.60;93.30;;;;;;4361478;32;43068;-85
2022/03/19 10:45:12;;;;;;;;;;;9.60;93.50;;;;;;4348274;32;45743;-86
2022/03/19 10:47:40;;;;;;;;;;;9.60;93.50;;;;;;4348196;32;44460;-85
2022/03/19 10:50:07;;;;;;;;;;;9.60;93.80;;;;;;4347945;32;42743;-86
2022/03/19 10:52:36;;;;;;;;;;;9.60;93.70;;;;;;4348096;32;43205;-86
2022/03/19 10:55:04;;;;;;;;;;;9.70;93.40;;;;;;4347859;32;43525;-86
2022/03/19 10:57:31;;;;;;;;;;;9.70;93.50;;;;;;4361376;32;43518;-86
2022/03/19 10:59:58;;;;;;;;;;;9.70;93.50;;;;;;4347325;33;45786;-85
2022/03/19 11:02:30;;;;;;;;;;;9.70;93.30;;;;;;4347179;32;43177;-86
2022/03/19 11:04:58;;;;;;;;;;;9.70;93.50;;;;;;4361208;32;44057;-86
2022/03/19 11:07:27;;;;;;;;;;;9.80;93.20;;;;;;4361109;32;44131;-86
2022/03/19 11:09:57;;;;;;;;;;;9.80;93.30;;;;;;4347364;32;42355;-86
2022/03/19 11:12:26;;;;;;;;;;;9.80;93.40;;;;;;4347844;32;46089;-86
2022/03/19 11:14:56;;;;;;;;;;;9.80;93.30;;;;;;4347434;32;43208;-87
2022/03/19 11:17:28;;;;;;;;;;;9.80;93.30;;;;;;4347329;32;42805;-86
2022/03/19 11:19:56;;;;;;;;;;;9.90;93.20;;;;;;4360540;32;43832;-86
2022/03/19 11:22:23;;;;;;;;;;;9.90;92.80;;;;;;4348623;32;19997;-86
2022/03/19 11:24:53;;;;;;;;;;;9.90;92.60;;;;;;4347153;32;44236;-86
2022/03/19 11:27:21;;;;;;;;;;;10.00;92.60;;;;;;4347331;32;43975;-86
2022/03/19 11:29:49;;;;;;;;;;;10.00;92.50;;;;;;4360897;32;45749;-86
2022/03/19 11:32:22;;;;;;;;;;;10.00;92.40;;;;;;4360382;32;44242;-86
2022/03/19 11:34:50;;;;;;;;;;;10.10;92.50;;;;;;4360766;32;42642;-86
2022/03/19 11:37:17;;;;;;;;;;;10.00;92.20;;;;;;4346871;32;44235;-85
2022/03/19 11:40:04;;;;;;;;;;;10.10;92.20;;;;;;4360944;32;45302;-86
2022/03/19 11:42:32;;;;;;;;;;;10.10;92.60;;;;;;4360736;32;45248;-86
2022/03/19 11:45:12;;;;;;;;;;;10.10;92.10;;;;;;4360669;32;43490;-86
2022/03/19 11:47:39;;;;;;;;;;;10.10;92.20;;;;;;4360534;32;44007;-86
2022/03/19 11:50:19;;;;;;;;;;;10.20;91.70;;;;;;4360622;32;44380;-86
2022/03/19 11:52:47;;;;;;;;;;;10.20;91.90;;;;;;4361343;32;20230;-86
2022/03/19 11:55:22;;;;;;;;;;;10.20;92.00;;;;;;4360620;32;44025;-86
2022/03/19 11:57:55;;;;;;;;;;;10.30;92.20;;;;;;4347062;32;43444;-86
2022/03/19 12:00:24;;;;;;;;;;;10.30;92.00;;;;;;4347581;32;44320;-86
2022/03/19 12:03:02;;;;;;;;;;;10.30;92.00;;;;;;4360041;32;43865;-87
2022/03/19 12:05:29;;;;;;;;;;;10.40;92.10;;;;;;4347058;32;43047;-88
2022/03/19 12:08:04;;;;;;;;;;;10.40;92.00;;;;;;4347063;32;46135;-86
2022/03/19 12:10:38;;;;;;;;;;;10.40;91.30;;;;;;4360476;32;44411;-87
2022/03/19 12:13:23;;;;;;;;;;;10.50;91.20;;;;;;4360119;32;43542;-86
2022/03/19 12:15:51;;;;;;;;;;;10.50;91.60;;;;;;4346743;32;42766;-86
2022/03/19 12:18:24;;;;;;;;;;;10.50;91.30;;;;;;4359790;32;42763;-86
2022/03/19 12:20:52;;;;;;;;;;;10.50;91.40;;;;;;4360130;32;44986;-86
2022/03/19 12:23:20;;;;;;;;;;;10.60;91.60;;;;;;4360714;32;20005;-86
2022/03/19 12:26:01;;;;;;;;;;;10.60;91.50;;;;;;4346324;32;44158;-87
2022/03/19 12:28:28;;;;;;;;;;;10.60;91.60;;;;;;4346917;32;43207;-87
2022/03/19 12:31:12;;;;;;;;;;;10.60;91.70;;;;;;4346931;32;43964;-87
2022/03/19 12:33:40;;;;;;;;;;;10.60;91.70;;;;;;4346967;32;43326;-87
2022/03/19 12:36:11;;;;;;;;;;;10.70;91.60;;;;;;4346394;32;44714;-87
2022/03/19 12:38:38;;;;;;;;;;;10.70;91.60;;;;;;4359614;32;43338;-87
2022/03/19 12:41:24;;;;;;;;;;;10.70;91.80;;;;;;4346984;33;43931;-86
2022/03/19 12:43:51;;;;;;;;;;;10.80;91.70;;;;;;4346507;33;42885;-87
2022/03/19 12:46:29;;;;;;;;;;;10.80;91.20;;;;;;4359999;33;45732;-87
2022/03/19 12:49:14;;;;;;;;;;;10.80;90.90;;;;;;4360053;33;43299;-87
2022/03/19 12:51:45;;;;;;;;;;;10.90;91.20;;;;;;4346683;33;43372;-87
2022/03/19 12:54:16;;;;;;;;;;;10.90;91.50;;;;;;4347182;33;20009;-87
2022/03/19 12:56:44;;;;;;;;;;;10.90;91.00;;;;;;4346453;33;44043;-87
2022/03/19 12:59:18;;;;;;;;;;;11.00;91.00;;;;;;4346803;33;43221;-87
2022/03/19 13:01:46;;;;;;;;;;;11.00;90.90;;;;;;4359851;33;46103;-87
2022/03/19 13:04:19;;;;;;;;;;;11.00;90.80;;;;;;4346148;33;42810;-87
2022/03/19 13:06:46;;;;;;;;;;;11.00;90.80;;;;;;4359981;33;44472;-88
2022/03/19 13:09:13;;;;;;;;;;;11.10;90.90;;;;;;4359652;33;44475;-87
2022/03/19 13:11:45;;;;;;;;;;;11.10;90.80;;;;;;4346425;33;45750;-87
2022/03/19 13:14:15;;;;;;;;;;;11.10;90.60;;;;;;4359884;33;45952;-87
2022/03/19 13:16:47;;;;;;;;;;;11.20;91.00;;;;;;4359274;33;44837;-87
2022/03/19 13:19:14;;;;;;;;;;;11.20;90.20;;;;;;4346006;33;44327;-87
2022/03/19 13:21:42;;;;;;;;;;;11.20;90.00;;;;;;4359544;33;44029;-87
2022/03/19 13:24:10;;;;;;;;;;;11.30;90.00;;;;;;4347788;32;44418;-87
2022/03/19 13:26:37;;;;;;;;;;;11.30;89.50;;;;;;4348922;32;43254;-86
2022/03/19 13:29:09;;;;;;;;;;;11.30;89.00;;;;;;4348884;32;45017;-85
2022/03/19 13:31:36;;;;;;;;;;;11.30;89.00;;;;;;4348761;32;44226;-87
2022/03/19 13:34:04;;;;;;;;;;;11.40;88.40;;;;;;4349143;32;42304;-87
2022/03/19 13:36:32;;;;;;;;;;;11.40;88.60;;;;;;4362348;32;43714;-87
2022/03/19 13:39:00;;;;;;;;;;;11.40;87.60;;;;;;4362044;32;42816;-86
2022/03/19 13:41:27;;;;;;;;;;;11.40;89.00;;;;;;4349104;32;44182;-87
2022/03/19 13:43:54;;;;;;;;;;;11.50;86.60;;;;;;4349062;32;44262;-87
2022/03/19 13:46:22;;;;;;;;;;;11.50;86.70;;;;;;4362165;32;45793;-87
2022/03/19 13:49:09;;;;;;;;;;;11.50;86.60;;;;;;4361863;32;42703;-87
2022/03/19 13:51:43;;;;;;;;;;;11.50;85.80;;;;;;4361923;32;42965;-87
2022/03/19 13:54:10;;;;;;;;;;;11.60;85.80;;;;;;4349144;32;43359;-88
2022/03/19 13:56:53;;;;;;;;;;;11.60;84.80;;;;;;4348816;32;44797;-87
2022/03/19 13:59:30;;;;;;;;;;;11.60;85.80;;;;;;4348513;32;44320;-87
2022/03/19 14:02:01;;;;;;;;;;;11.60;85.00;;;;;;4348608;32;43982;-87
2022/03/19 14:04:29;;;;;;;;;;;11.70;85.50;;;;;;4348640;32;43490;-87
2022/03/19 14:06:56;;;;;;;;;;;11.70;84.10;;;;;;4362012;32;44021;-87
2022/03/19 14:09:23;;;;;;;;;;;11.70;83.90;;;;;;4348623;32;42682;-88
2022/03/19 14:11:50;;;;;;;;;;;11.70;82.70;;;;;;4348296;32;42749;-87
2022/03/19 14:14:18;;;;;;;;;;;11.80;80.70;;;;;;4361541;32;45939;-87
2022/03/19 14:17:12;;;;;;;;;;;11.80;79.70;;;;;;4361974;32;45009;-87
2022/03/19 14:19:39;;;;;;;;;;;11.80;79.20;;;;;;4358622;32;44301;-87
2022/03/19 14:22:06;;;;;;;;;;;11.80;78.90;;;;;;4361883;32;42949;-88
2022/03/19 14:24:34;;;;;;;;;;;11.90;78.40;;;;;;4348258;32;45949;-87
2022/03/19 14:27:01;;;;;;;;;;;11.90;79.40;;;;;;4361425;32;44356;-87
2022/03/19 14:29:28;;;;;;;;;;;11.90;80.80;;;;;;4348004;32;43474;-87
2022/03/19 14:31:56;;;;;;;;;;;11.90;81.10;;;;;;4348502;32;43161;-87
2022/03/19 14:34:23;;;;;;;;;;;12.00;80.50;;;;;;4347666;32;43508;-87
2022/03/19 14:36:50;;;;;;;;;;;12.00;80.90;;;;;;4361203;32;44777;-88
2022/03/19 14:39:17;;;;;;;;;;;12.00;80.50;;;;;;4348055;32;42299;-88
2022/03/19 14:41:44;;;;;;;;;;;12.00;80.50;;;;;;4347756;32;44043;-88
2022/03/19 14:44:11;;;;;;;;;;;12.00;80.50;;;;;;4348082;32;44337;-88
2022/03/19 14:46:38;;;;;;;;;;;12.10;79.80;;;;;;4361519;32;43469;-88
2022/03/19 14:49:05;;;;;;;;;;;12.10;79.90;;;;;;4347665;32;43414;-87
2022/03/19 14:51:32;;;;;;;;;;;12.10;78.60;;;;;;4360964;32;44056;-88